Time;durP1;ratioP1;P1;durP2;ratioP2;P2;SDS_P1;SDS_P2;PMS_P1;PMS_P2;Temp;Humidity;BMP_temperature;BMP_pressure;BME280_temperature;BME280_humidity;BME280_pressure;Samples;Min_cycle;Max_cycle;Signal;HPM_P1;HPM_P2
2023/07/18 00:00:20;;;;;;;0.80;0.77;;;;;;;26.07;100.00;95521.22;5091304;28;20461;-51
2023/07/18 00:02:49;;;;;;;0.57;0.50;;;;;;;26.02;100.00;95521.50;5092205;28;20479;-52
2023/07/18 00:05:17;;;;;;;0.80;0.80;;;;;;;25.99;100.00;95516.00;5091552;28;20998;-52
2023/07/18 00:07:45;;;;;;;1.20;1.10;;;;;;;25.99;100.00;95522.22;5092096;28;20496;-52
2023/07/18 00:10:14;;;;;;;0.60;0.53;;;;;;;25.59;100.00;95465.69;5091150;28;20494;-51
2023/07/18 00:12:42;;;;;;;13.53;1.23;;;;;;;25.88;100.00;95520.50;5091924;28;20449;-51
2023/07/18 00:15:13;;;;;;;1.20;1.10;;;;;;;25.81;97.46;95515.69;5091727;28;20551;-51
2023/07/18 00:17:42;;;;;;;0.87;0.67;;;;;;;25.80;96.46;95519.56;5088328;28;20463;-52
2023/07/18 00:20:17;;;;;;;1.10;0.90;;;;;;;25.83;100.00;95513.44;5091469;28;20444;-51
2023/07/18 00:22:48;;;;;;;1.43;1.33;;;;;;;25.36;97.08;95504.75;5091182;28;20471;-51
2023/07/18 00:25:19;;;;;;;1.17;0.87;;;;;;;25.64;99.83;95518.88;5091947;28;20570;-51
2023/07/18 00:27:49;;;;;;;1.37;1.37;;;;;;;25.65;97.31;95504.94;5091278;28;20895;-51
2023/07/18 00:30:20;;;;;;;0.70;0.70;;;;;;;25.74;100.00;95516.38;5091727;28;20506;-52
2023/07/18 00:32:49;;;;;;;3.03;0.90;;;;;;;25.65;100.00;95507.66;5091593;28;20472;-51
2023/07/18 00:35:17;;;;;;;0.60;0.40;;;;;;;25.20;96.44;95442.41;5091501;28;20476;-51
2023/07/18 00:37:46;;;;;;;1.43;0.50;;;;;;;25.62;99.26;95510.31;5091273;28;20498;-51
2023/07/18 00:40:15;;;;;;;2.60;1.40;;;;;;;25.37;100.00;95482.69;5091446;28;20475;-51
2023/07/18 00:42:45;;;;;;;0.60;0.53;;;;;;;25.32;96.16;95509.34;5091643;28;20491;-51
2023/07/18 00:45:14;;;;;;;0.70;0.70;;;;;;;25.27;100.00;95500.31;5091599;28;20482;-51
2023/07/18 00:47:46;;;;;;;0.83;0.83;;;;;;;25.29;98.89;95504.63;5091578;28;20821;-51
2023/07/18 00:50:16;;;;;;;1.20;1.13;;;;;;;25.48;100.00;95507.31;5090877;28;20448;-51
2023/07/18 00:52:48;;;;;;;1.23;1.13;;;;;;;25.18;100.00;95509.81;5093405;28;20437;-50
2023/07/18 00:55:17;;;;;;;0.90;0.60;;;;;;;25.01;100.00;95494.78;5095226;28;20540;-50
2023/07/18 00:57:47;;;;;;;0.70;0.60;;;;;;;25.24;100.00;95500.25;5095277;28;20910;-51
2023/07/18 01:00:17;;;;;;;2.27;0.80;;;;;;;25.30;100.00;95489.91;5094851;28;20476;-50
2023/07/18 01:02:47;;;;;;;1.93;0.70;;;;;;;25.34;98.24;95499.69;5095111;28;20969;-50
2023/07/18 01:05:17;;;;;;;0.93;0.70;;;;;;;25.42;100.00;95501.41;5095310;28;20468;-51
2023/07/18 01:07:46;;;;;;;1.70;1.60;;;;;;;25.23;100.00;95482.41;5095046;28;21000;-51
2023/07/18 01:10:17;;;;;;;1.00;1.00;;;;;;;25.46;100.00;95493.34;5095364;28;20443;-51
2023/07/18 01:12:45;;;;;;;1.37;1.30;;;;;;;25.51;100.00;95493.03;5095095;28;20830;-51
2023/07/18 01:15:14;;;;;;;0.73;0.70;;;;;;;25.41;100.00;95490.88;5094362;28;20476;-50
2023/07/18 01:17:45;;;;;;;0.60;0.60;;;;;;;25.26;100.00;95468.13;5094898;28;20528;-50
2023/07/18 01:20:18;;;;;;;0.50;0.40;;;;;;;25.31;100.00;95486.03;5068804;28;20443;-50
2023/07/18 01:22:50;;;;;;;0.70;0.60;;;;;;;25.27;100.00;95486.75;5094208;28;20446;-50
2023/07/18 01:25:19;;;;;;;0.80;0.80;;;;;;;25.17;100.00;95479.19;5094888;28;20533;-51
2023/07/18 01:27:51;;;;;;;0.60;0.60;;;;;;;24.99;100.00;95464.50;5094571;28;20527;-51
2023/07/18 01:30:21;;;;;;;0.50;0.40;;;;;;;25.08;100.00;95477.84;5094747;28;20498;-51
2023/07/18 01:32:49;;;;;;;1.53;1.43;;;;;;;25.09;100.00;95474.78;5094416;28;20437;-51
2023/07/18 01:35:21;;;;;;;0.53;0.53;;;;;;;25.08;100.00;95473.22;5094941;28;20480;-51
2023/07/18 01:37:50;;;;;;;0.40;0.30;;;;;;;25.01;100.00;95473.06;5089676;28;21000;-51
2023/07/18 01:40:21;;;;;;;1.80;1.03;;;;;;;24.70;100.00;95466.94;5074211;28;20441;-51
2023/07/18 01:42:51;;;;;;;0.83;0.73;;;;;;;24.84;100.00;95465.38;5093954;28;20437;-51
2023/07/18 01:45:20;;;;;;;0.80;0.80;;;;;;;24.83;100.00;95463.78;5081457;28;20947;-50
2023/07/18 01:47:49;;;;;;;0.97;0.97;;;;;;;24.82;100.00;95462.19;5068174;28;20447;-51
2023/07/18 01:50:19;;;;;;;3.20;2.30;;;;;;;24.74;100.00;95452.34;5094364;28;20467;-51
2023/07/18 01:52:48;;;;;;;2.00;1.07;;;;;;;24.78;100.00;95466.78;5094095;28;20445;-50
2023/07/18 01:55:17;;;;;;;1.40;0.60;;;;;;;24.74;100.00;95463.19;5094005;28;20468;-50
2023/07/18 01:57:48;;;;;;;1.60;1.50;;;;;;;24.74;100.00;95471.31;5094274;28;20444;-50
2023/07/18 02:00:20;;;;;;;10.13;1.67;;;;;;;24.54;100.00;95464.31;5093598;28;20476;-50
2023/07/18 02:02:52;;;;;;;0.87;0.87;;;;;;;24.68;100.00;95467.31;5094247;28;20588;-50
2023/07/18 02:05:23;;;;;;;0.80;0.80;;;;;;;24.65;100.00;95470.72;5092813;28;20441;-50
2023/07/18 02:07:52;;;;;;;0.70;0.70;;;;;;;24.58;100.00;95471.38;5094194;28;20440;-51
2023/07/18 02:10:22;;;;;;;1.10;1.00;;;;;;;24.66;100.00;95471.50;5093890;28;20441;-51
2023/07/18 02:12:53;;;;;;;0.50;0.40;;;;;;;24.56;99.99;95475.56;5093823;28;20452;-51
2023/07/18 02:15:22;;;;;;;1.17;0.80;;;;;;;24.52;100.00;95469.28;5093847;28;20922;-51
2023/07/18 02:17:51;;;;;;;2.13;0.80;;;;;;;24.49;100.00;95473.47;5093419;28;20441;-51
2023/07/18 02:20:19;;;;;;;0.77;0.67;;;;;;;24.62;100.00;95476.84;5093669;28;20494;-50
2023/07/18 02:22:49;;;;;;;0.77;0.50;;;;;;;24.54;99.20;95480.56;5093518;28;21012;-51
2023/07/18 02:25:18;;;;;;;0.83;0.60;;;;;;;24.37;100.00;95479.00;5093730;28;20444;-51
2023/07/18 02:27:48;;;;;;;0.80;0.80;;;;;;;24.38;100.00;95477.09;5093326;28;20441;-51
2023/07/18 02:30:17;;;;;;;0.60;0.50;;;;;;;24.23;100.00;95475.19;5093341;28;20478;-50
2023/07/18 02:32:45;;;;;;;2.50;0.60;;;;;;;24.03;100.00;95483.22;5092788;28;20440;-51
2023/07/18 02:35:19;;;;;;;0.50;0.43;;;;;;;23.88;100.00;95429.09;5093358;28;20480;-51
2023/07/18 02:37:47;;;;;;;1.83;1.00;;;;;;;24.22;100.00;95479.81;5093153;28;20490;-51
2023/07/18 02:40:17;;;;;;;1.00;0.70;;;;;;;24.20;100.00;95487.53;5093503;28;20437;-51
2023/07/18 02:42:47;;;;;;;0.83;0.80;;;;;;;23.57;100.00;95418.25;5093392;28;20812;-51
2023/07/18 02:45:16;;;;;;;1.03;0.93;;;;;;;24.02;100.00;95484.34;5092868;28;20451;-51
2023/07/18 02:47:44;;;;;;;1.00;0.90;;;;;;;24.05;100.00;95485.59;5093107;28;20436;-52
2023/07/18 02:50:13;;;;;;;0.87;0.87;;;;;;;24.09;100.00;95480.25;5093069;28;20486;-51
2023/07/18 02:52:41;;;;;;;1.27;1.20;;;;;;;23.82;100.00;95479.19;5092629;28;20511;-51
2023/07/18 02:55:10;;;;;;;1.43;0.90;;;;;;;24.01;100.00;95477.34;5092779;28;20480;-51
2023/07/18 02:57:38;;;;;;;0.80;0.80;;;;;;;24.16;100.00;95480.47;5066855;28;20443;-51
2023/07/18 03:00:19;;;;;;;0.70;0.63;;;;;;;24.17;100.00;95476.59;5092268;28;20883;-51
2023/07/18 03:02:49;;;;;;;0.60;0.50;;;;;;;24.06;100.00;95486.38;5093000;28;20447;-52
2023/07/18 03:05:18;;;;;;;0.63;0.60;;;;;;;24.07;100.00;95485.22;5092965;28;20437;-51
2023/07/18 03:07:47;;;;;;;0.77;0.63;;;;;;;24.07;100.00;95477.09;5092749;28;20440;-51
2023/07/18 03:10:16;;;;;;;1.73;0.90;;;;;;;24.00;100.00;95478.50;5092682;28;20437;-52
2023/07/18 03:12:44;;;;;;;0.77;0.77;;;;;;;23.98;100.00;95483.47;5092533;28;21016;-52
2023/07/18 03:15:16;;;;;;;1.10;1.00;;;;;;;23.94;100.00;95493.44;5092585;28;20829;-51
2023/07/18 03:17:44;;;;;;;0.50;0.43;;;;;;;23.89;98.66;95474.75;5093006;28;20445;-51
2023/07/18 03:20:17;;;;;;;2.57;1.70;;;;;;;23.63;100.00;95485.28;5067163;28;20441;-51
2023/07/18 03:22:47;;;;;;;1.23;1.17;;;;;;;23.80;100.00;95489.59;5092266;28;20444;-52
2023/07/18 03:25:17;;;;;;;0.87;0.87;;;;;;;23.88;100.00;95494.06;5092757;28;20498;-52
2023/07/18 03:27:47;;;;;;;0.83;0.67;;;;;;;23.99;100.00;95487.75;5092183;28;20440;-52
2023/07/18 03:30:17;;;;;;;1.17;0.90;;;;;;;23.80;98.73;95455.19;5092722;28;20443;-52
2023/07/18 03:32:45;;;;;;;0.70;0.60;;;;;;;24.02;99.77;95494.41;5092244;28;20509;-52
2023/07/18 03:35:14;;;;;;;1.07;0.97;;;;;;;24.09;100.00;95496.50;5092196;28;20565;-52
2023/07/18 03:37:43;;;;;;;0.70;0.60;;;;;;;24.09;99.01;95510.06;5092057;28;20440;-52
2023/07/18 03:40:15;;;;;;;1.17;0.40;;;;;;;24.04;100.00;95511.06;5092412;28;20448;-52
2023/07/18 03:42:45;;;;;;;0.60;0.60;;;;;;;24.01;100.00;95509.84;5091523;28;20439;-52
2023/07/18 03:45:14;;;;;;;0.90;0.90;;;;;;;23.78;97.84;95508.13;5092310;28;20813;-52
2023/07/18 03:47:44;;;;;;;1.00;0.90;;;;;;;23.65;100.00;95512.81;5092062;28;20436;-52
2023/07/18 03:50:14;;;;;;;0.70;0.70;;;;;;;23.96;100.00;95512.81;5092368;28;20444;-52
2023/07/18 03:52:43;;;;;;;1.20;1.20;;;;;;;23.25;97.55;95498.56;5065212;28;20490;-50
2023/07/18 03:55:11;;;;;;;1.50;0.87;;;;;;;23.30;96.66;95511.84;5091539;28;20474;-51
2023/07/18 03:57:41;;;;;;;0.60;0.60;;;;;;;23.56;99.56;95501.34;5092164;28;20460;-51
2023/07/18 04:00:17;;;;;;;1.17;1.17;;;;;;;23.79;100.00;95510.47;5091996;28;20507;-51
2023/07/18 04:02:49;;;;;;;0.80;0.73;;;;;;;23.87;98.36;95509.50;5091759;28;20444;-51
2023/07/18 04:05:18;;;;;;;2.33;1.03;;;;;;;23.74;99.57;95445.75;5078222;28;20929;-51
2023/07/18 04:07:47;;;;;;;0.60;0.50;;;;;;;24.19;98.66;95514.94;5091741;28;20452;-51
2023/07/18 04:10:16;;;;;;;1.00;0.80;;;;;;;24.20;96.89;95516.53;5092072;28;20444;-51
2023/07/18 04:12:45;;;;;;;1.17;1.13;;;;;;;24.33;96.98;95512.59;5092252;28;20448;-51
2023/07/18 04:15:14;;;;;;;2.30;0.73;;;;;;;24.36;94.69;95520.78;5091201;28;20436;-51
2023/07/18 04:17:44;;;;;;;0.83;0.83;;;;;;;24.33;91.04;95507.16;5091921;28;20523;-51
2023/07/18 04:20:14;;;;;;;0.50;0.50;;;;;;;24.49;92.07;95513.31;5065369;28;20548;-52
2023/07/18 04:22:42;;;;;;;1.27;1.17;;;;;;;24.47;92.91;95519.09;5091721;28;20444;-51
2023/07/18 04:25:11;;;;;;;1.40;1.33;;;;;;;24.12;90.20;95520.19;5091285;28;20462;-51
2023/07/18 04:27:39;;;;;;;2.30;2.20;;;;;;;24.21;95.26;95516.16;5090430;28;20531;-52
2023/07/18 04:30:10;;;;;;;1.83;1.73;;;;;;;24.23;91.71;95516.63;5091758;28;20809;-52
2023/07/18 04:32:40;;;;;;;2.57;2.47;;;;;;;24.17;93.40;95512.59;5089593;28;20448;-51
2023/07/18 04:35:09;;;;;;;1.87;1.77;;;;;;;23.90;96.49;95511.53;5080446;28;20441;-52
2023/07/18 04:37:39;;;;;;;2.33;1.23;;;;;;;24.12;91.45;95512.84;5091146;28;20567;-58
2023/07/18 04:40:08;;;;;;;0.93;0.93;;;;;;;24.00;96.73;95513.72;5091405;28;20433;-54
2023/07/18 04:42:38;;;;;;;3.80;1.03;;;;;;;23.86;95.74;95509.84;5091201;28;20838;-54
2023/07/18 04:45:07;;;;;;;0.90;0.90;;;;;;;23.82;93.06;95506.28;5091012;28;20489;-54
2023/07/18 04:47:35;;;;;;;2.17;2.00;;;;;;;23.77;97.07;95509.25;5091017;28;20780;-54
2023/07/18 04:50:05;;;;;;;0.97;0.87;;;;;;;23.79;100.00;95501.56;5091388;28;20547;-54
2023/07/18 04:52:33;;;;;;;3.63;3.43;;;;;;;23.73;100.00;95503.72;5090889;28;20436;-54
2023/07/18 04:55:03;;;;;;;2.33;2.00;;;;;;;23.36;100.00;95489.63;5091342;28;20433;-55
2023/07/18 04:57:31;;;;;;;5.50;2.40;;;;;;;23.21;100.00;95511.97;5090731;28;20980;-55
2023/07/18 04:59:59;;;;;;;2.93;2.73;;;;;;;23.24;100.00;95507.78;5090970;28;20602;-55
2023/07/18 05:02:28;;;;;;;1.53;1.17;;;;;;;23.60;100.00;95512.28;5091133;28;20460;-54
2023/07/18 05:04:57;;;;;;;4.30;2.63;;;;;;;23.19;100.00;95506.13;5091349;28;20448;-55
2023/07/18 05:07:25;;;;;;;1.00;0.90;;;;;;;23.34;100.00;95510.00;5064458;28;20885;-54
2023/07/18 05:09:54;;;;;;;0.70;0.70;;;;;;;23.53;100.00;95512.09;5090960;28;21012;-55
2023/07/18 05:12:23;;;;;;;1.70;1.60;;;;;;;23.38;100.00;95503.59;5091139;28;20794;-55
2023/07/18 05:14:52;;;;;;;2.37;1.90;;;;;;;23.47;100.00;95498.03;5091295;28;20471;-54
2023/07/18 05:17:20;;;;;;;1.77;1.67;;;;;;;23.45;100.00;95499.50;5091514;28;20476;-54
2023/07/18 05:19:48;;;;;;;2.30;1.53;;;;;;;23.43;100.00;95507.19;5090922;28;20494;-54
2023/07/18 05:22:17;;;;;;;1.20;0.70;;;;;;;23.60;100.00;95474.41;5091337;28;20532;-54
2023/07/18 05:24:45;;;;;;;1.37;1.27;;;;;;;23.88;100.00;95502.19;5090886;28;20495;-54
2023/07/18 05:27:13;;;;;;;1.03;1.00;;;;;;;24.30;100.00;95503.25;5090836;28;20445;-55
2023/07/18 05:29:43;;;;;;;1.70;1.43;;;;;;;24.39;96.95;95500.31;5090943;28;20440;-55
2023/07/18 05:32:12;;;;;;;2.40;2.00;;;;;;;24.52;96.23;95502.59;5088331;28;20561;-54
2023/07/18 05:34:40;;;;;;;1.67;1.57;;;;;;;24.32;96.06;95500.16;5091248;28;20449;-55
2023/07/18 05:37:08;;;;;;;0.93;0.93;;;;;;;24.59;95.96;95500.03;5090687;28;20563;-55
2023/07/18 05:39:38;;;;;;;3.80;1.90;;;;;;;24.87;91.53;95497.16;5092404;28;20467;-55
2023/07/18 05:42:06;;;;;;;1.70;1.10;;;;;;;24.99;89.53;95493.56;5094145;28;20444;-55
2023/07/18 05:44:37;;;;;;;2.10;0.50;;;;;;;25.34;93.22;95496.97;5093973;28;20437;-54
2023/07/18 05:47:07;;;;;;;1.33;1.23;;;;;;;25.08;88.38;95489.47;5094161;28;20498;-56
2023/07/18 05:49:35;;;;;;;4.33;1.10;;;;;;;25.54;89.82;95505.91;5093648;28;20842;-55
2023/07/18 05:52:04;;;;;;;0.47;0.40;;;;;;;25.85;87.48;95490.19;5093393;28;20470;-55
2023/07/18 05:54:32;;;;;;;0.80;0.77;;;;;;;26.10;86.05;95487.09;5093618;28;20522;-56
2023/07/18 05:57:04;;;;;;;1.40;1.07;;;;;;;25.99;81.22;95481.50;5093814;28;20472;-56
2023/07/18 05:59:34;;;;;;;0.83;0.83;;;;;;;26.14;83.86;95488.75;5093960;28;20555;-55
2023/07/18 06:02:04;;;;;;;1.13;0.60;;;;;;;26.34;78.82;95478.56;5093925;28;20503;-56
2023/07/18 06:04:37;;;;;;;4.00;3.43;;;;;;;26.19;76.11;95476.78;5094143;28;20876;-56
2023/07/18 06:07:06;;;;;;;1.57;1.47;;;;;;;26.22;78.88;95479.56;5093528;28;20490;-56
2023/07/18 06:09:34;;;;;;;1.13;0.93;;;;;;;26.78;76.68;95479.63;5093317;28;20440;-55
2023/07/18 06:12:03;;;;;;;0.80;0.70;;;;;;;26.99;73.34;95469.00;5094033;28;20448;-55
2023/07/18 06:14:31;;;;;;;2.03;1.93;;;;;;;26.76;72.07;95472.97;5093961;28;20817;-56
2023/07/18 06:16:59;;;;;;;1.37;1.23;;;;;;;26.76;72.50;95478.41;5094052;28;20468;-56
2023/07/18 06:19:28;;;;;;;1.53;1.13;;;;;;;27.17;71.64;95471.97;5093425;28;20436;-56
2023/07/18 06:21:58;;;;;;;3.97;1.90;;;;;;;26.80;70.90;95480.03;5093834;28;20574;-56
2023/07/18 06:24:26;;;;;;;2.13;2.03;;;;;;;26.98;70.92;95466.69;5068451;28;20447;-56
2023/07/18 06:26:54;;;;;;;2.23;2.13;;;;;;;27.43;72.95;95471.91;5093625;28;20444;-57
2023/07/18 06:29:24;;;;;;;0.70;0.60;;;;;;;28.04;69.96;95476.00;5093697;28;20436;-58
2023/07/18 06:31:56;;;;;;;1.13;0.50;;;;;;;28.25;69.21;95468.78;5093241;28;20432;-57
2023/07/18 06:34:25;;;;;;;0.93;0.77;;;;;;;28.44;65.18;95462.28;5093527;28;20445;-58
2023/07/18 06:36:53;;;;;;;1.60;0.67;;;;;;;28.90;64.19;95465.31;5079951;28;20821;-59
2023/07/18 06:39:23;;;;;;;4.47;1.70;;;;;;;29.13;64.02;95470.47;5093650;28;20472;-59
2023/07/18 06:41:51;;;;;;;6.30;2.17;;;;;;;29.02;63.07;95461.50;5093062;28;20528;-59
2023/07/18 06:44:19;;;;;;;1.40;1.30;;;;;;;29.63;63.43;95461.31;5093045;28;20945;-59
2023/07/18 06:46:48;;;;;;;0.80;0.70;;;;;;;29.33;62.58;95455.38;5093596;28;20516;-59
2023/07/18 06:49:18;;;;;;;1.10;1.00;;;;;;;29.49;61.66;95455.81;5093195;28;20524;-58
2023/07/18 06:51:46;;;;;;;1.30;1.20;;;;;;;29.78;60.10;95451.22;5092190;28;20437;-57
2023/07/18 06:54:14;;;;;;;0.87;0.87;;;;;;;30.47;60.08;95455.13;5093054;28;20437;-57
2023/07/18 06:56:45;;;;;;;1.63;1.53;;;;;;;30.40;60.73;95449.69;5092717;28;20441;-57
2023/07/18 06:59:13;;;;;;;1.30;1.20;;;;;;;30.31;58.32;95440.28;5092668;28;20476;-58
2023/07/18 07:01:43;;;;;;;1.90;1.80;;;;;;;29.75;58.40;95466.41;5086189;28;20445;-59
2023/07/18 07:04:11;;;;;;;1.17;1.10;;;;;;;30.23;58.08;95446.94;5086824;28;20480;-57
2023/07/18 07:06:41;;;;;;;0.97;0.97;;;;;;;30.29;57.97;95445.34;5093255;28;20947;-59
2023/07/18 07:09:12;;;;;;;1.27;1.07;;;;;;;30.60;58.61;95442.63;5092662;28;20468;-58
2023/07/18 07:11:41;;;;;;;1.73;1.27;;;;;;;30.53;56.27;95447.31;5092769;28;20501;-59
2023/07/18 07:14:12;;;;;;;0.80;0.77;;;;;;;31.40;56.08;95443.50;5092625;28;21035;-58
2023/07/18 07:16:40;;;;;;;0.80;0.70;;;;;;;31.32;55.01;95435.75;5092995;28;20479;-57
2023/07/18 07:19:09;;;;;;;2.37;2.17;;;;;;;31.56;54.77;95432.09;5092333;28;20475;-57
2023/07/18 07:21:37;;;;;;;2.87;1.30;;;;;;;31.51;54.81;95437.22;5092374;28;20489;-57
2023/07/18 07:24:06;;;;;;;2.00;1.80;;;;;;;31.32;54.49;95430.25;5092182;28;20436;-57
2023/07/18 07:26:37;;;;;;;1.50;1.27;;;;;;;32.08;57.41;95437.63;5092388;28;20458;-58
2023/07/18 07:29:07;;;;;;;1.40;1.07;;;;;;;32.51;52.62;95431.38;5092712;28;20435;-57
2023/07/18 07:31:37;;;;;;;0.50;0.50;;;;;;;32.39;52.10;95387.19;5092927;28;20436;-57
2023/07/18 07:34:06;;;;;;;0.80;0.80;;;;;;;32.93;52.38;95424.66;5092195;28;20442;-57
2023/07/18 07:36:34;;;;;;;1.50;1.40;;;;;;;32.55;50.92;95421.16;5092124;28;21021;-58
2023/07/18 07:39:04;;;;;;;0.63;0.60;;;;;;;32.91;50.54;95420.78;5092327;28;20913;-58
2023/07/18 07:41:32;;;;;;;1.70;1.60;;;;;;;33.24;50.23;95420.00;5092115;28;20496;-56
2023/07/18 07:44:01;;;;;;;0.70;0.53;;;;;;;33.76;49.16;95421.25;5092255;28;20444;-57
2023/07/18 07:46:29;;;;;;;2.57;0.80;;;;;;;33.83;50.03;95420.34;5092011;28;20448;-57
2023/07/18 07:48:59;;;;;;;0.97;0.87;;;;;;;33.24;53.04;95420.75;5092429;28;20447;-57
2023/07/18 07:51:27;;;;;;;3.63;3.53;;;;;;;33.38;48.95;95413.50;5091811;28;21032;-57
2023/07/18 07:53:56;;;;;;;0.80;0.77;;;;;;;33.33;49.73;95397.50;5092596;28;20436;-58
2023/07/18 07:56:24;;;;;;;1.57;1.10;;;;;;;33.96;49.14;95404.81;5092090;28;20471;-60
2023/07/18 07:58:53;;;;;;;0.50;0.50;;;;;;;34.69;47.29;95396.50;5092040;28;20538;-61
2023/07/18 08:01:38;;;;;;;1.13;1.03;;;;;;;34.87;47.25;95396.94;5090420;28;20866;-59
2023/07/18 08:04:08;;;;;;;1.13;1.03;;;;;;;34.16;47.73;95402.16;5092023;28;20443;-59
2023/07/18 08:06:37;;;;;;;1.17;0.80;;;;;;;34.20;47.58;95389.91;5091652;28;20987;-61
2023/07/18 08:09:05;;;;;;;1.67;1.57;;;;;;;33.82;48.56;95397.59;5091380;28;20439;-59
2023/07/18 08:11:34;;;;;;;1.40;1.30;;;;;;;33.62;48.48;95388.47;5091510;28;20639;-59
2023/07/18 08:14:02;;;;;;;2.10;2.00;;;;;;;34.06;48.75;95389.34;5091460;28;20439;-59
2023/07/18 08:16:30;;;;;;;3.33;1.97;;;;;;;33.18;49.09;95394.16;5091678;28;20837;-60
2023/07/18 08:18:59;;;;;;;6.53;1.77;;;;;;;33.24;49.11;95387.78;5091307;28;20566;-59
2023/07/18 08:21:29;;;;;;;0.83;0.77;;;;;;;34.13;48.25;95379.00;5091632;28;20485;-60
2023/07/18 08:23:57;;;;;;;1.00;1.00;;;;;;;34.58;47.44;95386.91;5091798;28;20440;-60
2023/07/18 08:26:25;;;;;;;0.80;0.80;;;;;;;35.17;45.94;95376.66;5091344;28;20444;-61
2023/07/18 08:28:53;;;;;;;0.50;0.40;;;;;;;35.87;47.19;95387.31;5091693;28;20436;-58
2023/07/18 08:31:22;;;;;;;1.17;1.00;;;;;;;35.80;45.75;95377.22;5091564;28;20953;-61
2023/07/18 08:33:50;;;;;;;0.40;0.30;;;;;;;36.66;45.49;95379.44;5091473;28;20820;-61
2023/07/18 08:36:19;;;;;;;0.77;0.40;;;;;;;36.33;45.43;95375.94;5091400;28;20193;-59
2023/07/18 08:38:50;;;;;;;0.70;0.70;;;;;;;36.75;43.75;95380.34;5091292;28;20237;-58
2023/07/18 08:41:19;;;;;;;2.23;0.70;;;;;;;36.73;44.51;95382.00;5091315;28;20194;-59
2023/07/18 08:43:49;;;;;;;0.87;0.87;;;;;;;35.87;44.61;95366.03;5090923;28;20190;-59
2023/07/18 08:46:18;;;;;;;1.67;1.57;;;;;;;36.37;43.40;95370.31;5078518;28;20198;-58
2023/07/18 08:48:48;;;;;;;0.40;0.40;;;;;;;37.03;41.58;95370.50;5078133;28;20570;-60
2023/07/18 08:51:16;;;;;;;1.07;1.00;;;;;;;37.42;41.10;95369.38;5091194;28;20197;-58
2023/07/18 08:53:46;;;;;;;0.98;0.70;;;;;;;36.97;42.38;95358.44;5091630;28;20285;-60
2023/07/18 08:56:15;;;;;;;1.23;1.23;;;;;;;35.99;44.39;95357.06;5091510;28;20216;-58
2023/07/18 08:58:44;;;;;;;1.50;1.40;;;;;;;36.15;44.54;95357.09;5091418;28;20241;-59
2023/07/18 09:01:12;;;;;;;0.77;0.77;;;;;;;36.98;44.85;95354.47;5091031;28;20233;-59
2023/07/18 09:03:41;;;;;;;1.25;1.23;;;;;;;37.79;45.42;95351.22;5091346;28;20197;-58
2023/07/18 09:06:18;;;;;;;1.67;1.40;;;;;;;36.13;43.04;95348.44;5088136;28;20195;-58
2023/07/18 09:08:47;;;;;;;2.78;2.55;;;;;;;36.04;43.61;95342.78;5082680;28;20194;-59
2023/07/18 09:11:20;;;;;;;1.47;1.33;;;;;;;36.46;43.14;95346.38;5091029;28;20197;-57
2023/07/18 09:13:50;;;;;;;0.90;0.90;;;;;;;37.31;41.99;95344.78;5093345;28;20223;-58
2023/07/18 09:16:20;;;;;;;2.22;2.13;;;;;;;37.37;40.80;95347.75;5068637;28;20263;-57
2023/07/18 09:18:49;;;;;;;1.58;1.48;;;;;;;36.99;41.12;95342.19;5081177;28;20206;-58
2023/07/18 09:21:19;;;;;;;1.00;0.90;;;;;;;37.96;39.96;95338.81;5094479;28;20198;-58
2023/07/18 09:23:48;;;;;;;3.30;0.77;;;;;;;38.35;38.66;95332.78;5094914;28;20194;-59
2023/07/18 09:26:20;;;;;;;2.25;1.20;;;;;;;37.85;40.20;95336.41;5093735;28;20267;-59
2023/07/18 09:28:51;;;;;;;0.73;0.73;;;;;;;38.65;37.23;95281.44;5090990;28;20194;-59
2023/07/18 09:31:21;;;;;;;0.68;0.68;;;;;;;38.28;36.77;95324.66;5092914;28;20681;-59
2023/07/18 09:33:51;;;;;;;0.70;0.70;;;;;;;38.06;38.54;95318.31;5094787;28;20247;-59
2023/07/18 09:36:22;;;;;;;1.23;0.85;;;;;;;38.42;35.25;95317.88;5095065;28;20708;-59
2023/07/18 09:38:51;;;;;;;1.88;1.85;;;;;;;38.66;35.50;95310.66;5094738;28;20220;-59
2023/07/18 09:41:23;;;;;;;1.23;1.17;;;;;;;39.37;33.64;95300.50;5094361;28;20198;-58
2023/07/18 09:43:54;;;;;;;1.05;0.50;;;;;;;40.13;35.91;95300.59;5094519;28;20189;-57
2023/07/18 09:46:43;;;;;;;0.65;0.50;;;;;;;39.95;35.58;95295.75;5094227;28;20201;-58
2023/07/18 09:49:12;;;;;;;0.73;0.73;;;;;;;39.27;35.40;95290.59;5094221;28;20201;-58
2023/07/18 09:51:49;;;;;;;0.50;0.50;;;;;;;39.96;35.79;95285.44;5094558;28;20688;-58
2023/07/18 09:54:18;;;;;;;0.88;0.65;;;;;;;40.35;32.00;95292.91;5094510;28;20193;-59
2023/07/18 09:56:49;;;;;;;1.00;0.90;;;;;;;41.01;31.80;95268.16;5094237;28;20194;-58
2023/07/18 09:59:18;;;;;;;5.60;1.38;;;;;;;40.82;32.48;95288.84;5094148;28;20294;-60
2023/07/18 10:01:48;;;;;;;1.45;1.10;;;;;;;39.67;31.11;95285.06;5068264;28;20201;-60
2023/07/18 10:04:20;;;;;;;1.88;0.70;;;;;;;39.93;32.14;95280.78;5093823;28;20197;-57
2023/07/18 10:06:49;;;;;;;0.80;0.80;;;;;;;39.64;32.13;95278.44;5094367;28;20233;-59
2023/07/18 10:09:18;;;;;;;1.25;1.10;;;;;;;38.64;31.72;95272.34;5093727;28;20205;-60
2023/07/18 10:12:12;;;;;;;3.65;0.63;;;;;;;39.50;31.13;95259.56;5094401;28;20221;-60
2023/07/18 10:14:52;;;;;;;0.65;0.65;;;;;;;40.24;30.83;95258.47;5092026;28;20198;-59
2023/07/18 10:17:29;;;;;;;0.70;0.50;;;;;;;40.97;29.67;95261.97;5093491;28;20208;-58
2023/07/18 10:19:58;;;;;;;0.90;0.90;;;;;;;41.46;31.04;95267.22;5094218;28;20224;-57
2023/07/18 10:22:28;;;;;;;1.25;0.80;;;;;;;40.21;31.32;95257.41;5093683;28;20653;-58
2023/07/18 10:25:00;;;;;;;2.67;2.47;;;;;;;40.14;30.36;95248.59;5093104;28;20693;-60
2023/07/18 10:27:42;;;;;;;0.60;0.60;;;;;;;39.68;31.07;95203.34;5094042;28;20198;-59
2023/07/18 10:30:15;;;;;;;0.88;0.88;;;;;;;40.37;32.94;95243.19;5093681;28;20198;-57
2023/07/18 10:32:52;;;;;;;0.68;0.68;;;;;;;40.74;31.09;95234.81;5093795;28;20190;-57
2023/07/18 10:35:24;;;;;;;0.68;0.68;;;;;;;40.18;29.62;95233.31;5093319;28;20194;-54
2023/07/18 10:37:54;;;;;;;0.88;0.77;;;;;;;40.91;30.70;95230.50;5093526;28;20190;-54
2023/07/18 10:40:39;;;;;;;1.00;0.75;;;;;;;40.74;30.12;95223.69;5093091;28;20206;-54
2023/07/18 10:43:11;;;;;;;1.17;1.15;;;;;;;41.27;30.32;95237.88;5093338;28;20680;-54
2023/07/18 10:45:40;;;;;;;1.52;1.23;;;;;;;41.16;30.98;95235.66;5068389;28;20558;-54
2023/07/18 10:48:13;;;;;;;0.68;0.68;;;;;;;40.60;30.04;95238.25;5093433;28;20194;-54
2023/07/18 10:50:42;;;;;;;0.73;0.73;;;;;;;40.80;31.06;95236.50;5093261;28;20711;-56
2023/07/18 10:53:14;;;;;;;0.60;0.60;;;;;;;40.64;30.99;95236.84;5093235;28;20248;-54
2023/07/18 10:55:45;;;;;;;1.42;0.88;;;;;;;40.38;28.56;95228.06;5093462;28;20618;-53
2023/07/18 10:58:18;;;;;;;1.05;1.00;;;;;;;39.94;29.36;95229.59;5093411;28;20222;-53
2023/07/18 11:00:49;;;;;;;1.65;0.95;;;;;;;40.52;28.57;95232.25;5093163;28;20597;-54
2023/07/18 11:03:22;;;;;;;0.85;0.60;;;;;;;40.08;29.29;95236.59;5092863;28;20202;-54
2023/07/18 11:05:50;;;;;;;1.13;1.05;;;;;;;39.61;32.51;95226.63;5093438;28;20233;-53
2023/07/18 11:08:26;;;;;;;0.77;0.57;;;;;;;39.05;32.53;95226.88;5093188;28;20277;-54
2023/07/18 11:10:56;;;;;;;0.93;0.93;;;;;;;39.13;34.00;95224.59;5093069;28;20201;-53
2023/07/18 11:13:36;;;;;;;0.50;0.50;;;;;;;39.57;29.97;95219.66;5093211;28;20197;-54
2023/07/18 11:16:07;;;;;;;0.60;0.60;;;;;;;39.16;31.17;95218.91;5092446;28;20225;-54
2023/07/18 11:18:36;;;;;;;0.75;0.75;;;;;;;38.94;34.18;95225.75;5092619;28;20193;-53
2023/07/18 11:21:06;;;;;;;0.68;0.52;;;;;;;39.68;33.08;95212.44;5092333;28;20267;-53
2023/07/18 11:23:36;;;;;;;1.38;1.27;;;;;;;39.69;32.92;95200.13;5092722;28;20198;-53
2023/07/18 11:26:12;;;;;;;1.05;1.02;;;;;;;39.68;30.62;95208.91;5066095;28;20643;-54
2023/07/18 11:28:43;;;;;;;1.98;0.98;;;;;;;39.38;29.85;95216.06;5092728;28;20612;-53
2023/07/18 11:31:22;;;;;;;1.75;1.65;;;;;;;38.42;31.38;95212.66;5092765;28;20243;-54
2023/07/18 11:33:55;;;;;;;1.08;1.08;;;;;;;38.73;31.68;95210.69;5092343;28;20243;-54
2023/07/18 11:36:28;;;;;;;2.13;1.75;;;;;;;39.06;32.15;95202.69;5092947;28;20198;-53
2023/07/18 11:38:58;;;;;;;1.00;1.00;;;;;;;38.99;30.84;95198.19;5092694;28;20194;-55
2023/07/18 11:41:33;;;;;;;1.70;1.35;;;;;;;39.51;31.79;95202.84;5092239;28;20209;-53
2023/07/18 11:44:04;;;;;;;1.15;1.05;;;;;;;38.59;31.64;95195.38;5067394;28;20193;-53